Time;durP1;ratioP1;P1;durP2;ratioP2;P2;SDS_P1;SDS_P2;PMS_P1;PMS_P2;Temp;Humidity;BMP_temperature;BMP_pressure;BME280_temperature;BME280_humidity;BME280_pressure;Samples;Min_cycle;Max_cycle;Signal;HPM_P1;HPM_P2
2023/06/06 00:00:28;;;;;;;3.63;2.30;;;16.90;98.00;;;;;;5051323;28;20457;-67
2023/06/06 00:02:56;;;;;;;3.23;2.40;;;16.90;98.00;;;;;;5051277;28;20496;-67
2023/06/06 00:05:25;;;;;;;4.83;2.70;;;16.90;98.00;;;;;;5033098;28;20877;-67
2023/06/06 00:07:56;;;;;;;3.33;2.50;;;16.90;98.00;;;;;;5033654;28;20489;-67
2023/06/06 00:10:23;;;;;;;5.23;2.40;;;16.80;98.00;;;;;;5033390;28;20453;-67
2023/06/06 00:12:52;;;;;;;5.17;2.97;;;16.70;98.00;;;;;;5050757;28;20450;-67
2023/06/06 00:15:20;;;;;;;3.57;2.53;;;16.80;98.00;;;;;;5050856;28;20457;-66
2023/06/06 00:17:48;;;;;;;4.60;2.50;;;16.70;98.00;;;;;;5050787;28;20521;-67
2023/06/06 00:20:16;;;;;;;5.07;2.47;;;16.50;98.00;;;;;;5050752;28;20948;-66
2023/06/06 00:22:44;;;;;;;4.00;2.57;;;16.50;98.00;;;;;;5050836;28;20461;-67
2023/06/06 00:25:15;;;;;;;4.40;2.83;;;16.60;98.00;;;;;;5050784;28;20453;-66
2023/06/06 00:27:42;;;;;;;3.50;2.37;;;16.60;98.00;;;;;;5051630;28;20453;-67
2023/06/06 00:30:10;;;;;;;4.67;2.53;;;16.60;98.00;;;;;;5055096;28;20464;-67
2023/06/06 00:32:37;;;;;;;4.40;2.50;;;16.50;98.00;;;;;;5036975;28;20473;-67
2023/06/06 00:35:05;;;;;;;3.40;2.47;;;16.40;98.00;;;;;;5054693;28;20484;-67
2023/06/06 00:37:32;;;;;;;5.13;2.50;;;16.40;98.00;;;;;;5054620;28;20822;-67
2023/06/06 00:39:59;;;;;;;4.60;3.00;;;16.30;98.00;;;;;;5054439;28;20453;-67
2023/06/06 00:42:28;;;;;;;5.23;2.90;;;16.30;98.00;;;;;;5037128;28;20453;-66
2023/06/06 00:44:55;;;;;;;5.80;3.20;;;16.10;98.00;;;;;;5054167;28;20457;-66
2023/06/06 00:47:25;;;;;;;4.97;2.80;;;15.90;98.00;;;;;;5054490;28;20464;-66
2023/06/06 00:49:52;;;;;;;6.23;3.17;;;15.90;98.00;;;;;;5054527;28;20449;-67
2023/06/06 00:52:21;;;;;;;4.87;2.80;;;16.00;98.00;;;;;;5054365;28;20450;-66
2023/06/06 00:54:49;;;;;;;5.40;2.93;;;15.90;98.00;;;;;;5054782;28;20489;-67
2023/06/06 00:57:18;;;;;;;3.63;2.57;;;16.00;98.00;;;;;;5054557;28;20461;-67
2023/06/06 00:59:48;;;;;;;5.03;2.90;;;16.10;98.00;;;;;;5054583;28;20485;-66
2023/06/06 01:02:17;;;;;;;5.83;2.70;;;16.40;98.00;;;;;;5054378;28;20465;-67
2023/06/06 01:04:47;;;;;;;5.40;2.20;;;16.50;98.00;;;;;;5054271;28;20468;-67
2023/06/06 01:07:17;;;;;;;3.80;2.50;;;16.40;98.00;;;;;;5054131;28;20461;-67
2023/06/06 01:09:46;;;;;;;7.03;2.97;;;16.50;98.00;;;;;;5054126;28;20805;-67
2023/06/06 01:12:27;;;;;;;3.73;2.67;;;16.30;98.00;;;;;;5054363;28;20827;-66
2023/06/06 01:15:08;;;;;;;4.50;2.70;;;15.90;98.00;;;;;;5054069;28;20511;-67
2023/06/06 01:17:36;;;;;;;5.53;2.50;;;15.70;98.00;;;;;;5053918;28;20964;-66
2023/06/06 01:20:06;;;;;;;6.90;3.23;;;15.60;98.00;;;;;;5054076;28;20461;-66
2023/06/06 01:22:35;;;;;;;8.00;2.87;;;15.40;98.00;;;;;;5053839;28;20482;-66
2023/06/06 01:25:04;;;;;;;4.87;2.70;;;15.30;98.00;;;;;;5053824;28;20461;-66
2023/06/06 01:27:33;;;;;;;4.07;2.63;;;15.20;98.00;;;;;;5053871;28;20468;-66
2023/06/06 01:30:00;;;;;;;5.60;2.93;;;15.10;98.00;;;;;;5053501;28;20465;-67
2023/06/06 01:32:33;;;;;;;3.63;2.40;;;15.20;98.00;;;;;;5053707;28;20489;-66
2023/06/06 01:35:07;;;;;;;3.90;2.57;;;15.10;98.00;;;;;;5053730;28;20450;-66
2023/06/06 01:37:45;;;;;;;4.37;2.63;;;15.10;98.00;;;;;;5053520;28;20454;-66
2023/06/06 01:40:14;;;;;;;3.43;2.30;;;15.00;98.00;;;;;;5051972;28;20927;-66
2023/06/06 01:42:45;;;;;;;4.83;3.00;;;15.00;98.00;;;;;;5053771;28;20531;-66
2023/06/06 01:45:15;;;;;;;3.20;2.40;;;15.00;98.00;;;;;;5053416;28;20465;-67
2023/06/06 01:47:44;;;;;;;3.80;2.60;;;14.90;98.00;;;;;;5053456;28;20490;-67
2023/06/06 01:50:12;;;;;;;4.63;2.87;;;15.00;98.00;;;;;;5053698;28;21033;-66
2023/06/06 01:52:40;;;;;;;5.20;2.70;;;15.30;98.00;;;;;;5053488;28;20940;-67
2023/06/06 01:55:08;;;;;;;3.93;2.50;;;15.40;98.00;;;;;;5053570;28;20860;-66
2023/06/06 01:57:36;;;;;;;4.60;2.80;;;15.40;98.00;;;;;;5053183;28;20511;-66
2023/06/06 02:00:08;;;;;;;6.50;3.17;;;15.30;98.00;;;;;;5053068;28;20832;-67
2023/06/06 02:02:36;;;;;;;5.57;3.00;;;15.10;98.00;;;;;;5053059;28;20858;-66
2023/06/06 02:05:04;;;;;;;5.27;2.90;;;15.00;98.00;;;;;;5052962;28;20449;-66
2023/06/06 02:07:34;;;;;;;4.27;2.70;;;14.80;98.00;;;;;;5052987;28;20541;-66
2023/06/06 02:10:04;;;;;;;5.13;2.67;;;14.90;98.00;;;;;;5052801;28;20453;-66
2023/06/06 02:12:31;;;;;;;5.47;3.07;;;14.90;98.00;;;;;;5052882;28;20469;-66
2023/06/06 02:14:59;;;;;;;4.67;2.60;;;14.70;98.00;;;;;;5052794;28;20955;-66
2023/06/06 02:17:28;;;;;;;4.33;2.53;;;14.60;98.00;;;;;;5052785;28;20507;-66
2023/06/06 02:19:55;;;;;;;4.33;2.80;;;14.50;98.00;;;;;;5052564;28;20488;-66
2023/06/06 02:22:22;;;;;;;4.20;2.50;;;14.60;98.00;;;;;;5052727;28;20495;-66
2023/06/06 02:24:49;;;;;;;5.60;3.17;;;14.60;98.00;;;;;;5052809;28;20458;-66
2023/06/06 02:27:18;;;;;;;6.80;2.97;;;14.60;98.00;;;;;;5052369;28;20462;-66
2023/06/06 02:29:45;;;;;;;5.03;3.00;;;14.60;98.00;;;;;;5052657;28;20461;-66
2023/06/06 02:32:13;;;;;;;4.50;2.60;;;14.60;98.00;;;;;;5052167;28;20888;-66
2023/06/06 02:34:40;;;;;;;3.90;2.70;;;14.60;98.00;;;;;;5052545;28;20457;-66
2023/06/06 02:37:07;;;;;;;8.33;2.87;;;14.40;98.00;;;;;;5052301;28;20548;-66
2023/06/06 02:39:37;;;;;;;3.50;2.70;;;14.30;98.00;;;;;;5052382;28;20532;-66
2023/06/06 02:42:05;;;;;;;3.97;2.57;;;14.40;98.00;;;;;;5052539;28;20457;-67
2023/06/06 02:44:33;;;;;;;4.00;2.47;;;14.50;98.00;;;;;;5052517;28;20504;-66
2023/06/06 02:47:00;;;;;;;4.10;3.00;;;14.50;98.00;;;;;;5052565;28;20452;-66
2023/06/06 02:49:28;;;;;;;3.60;2.40;;;14.60;98.00;;;;;;5052541;28;20519;-66
2023/06/06 02:51:56;;;;;;;6.43;3.20;;;14.50;98.00;;;;;;5051991;28;20499;-66
2023/06/06 02:54:23;;;;;;;4.10;2.50;;;14.40;98.00;;;;;;5052075;28;21022;-66
2023/06/06 02:56:50;;;;;;;4.03;2.63;;;14.50;98.00;;;;;;5052231;28;20468;-66
2023/06/06 02:59:17;;;;;;;4.17;2.50;;;14.60;98.00;;;;;;5034260;28;20482;-67
2023/06/06 03:01:47;;;;;;;5.77;3.00;;;14.50;98.00;;;;;;5051951;28;20523;-66
2023/06/06 03:04:15;;;;;;;4.87;2.90;;;14.40;98.00;;;;;;5052175;28;20453;-66
2023/06/06 03:06:42;;;;;;;6.00;3.10;;;14.40;98.00;;;;;;5051825;28;20549;-66
2023/06/06 03:09:10;;;;;;;4.53;2.80;;;14.30;98.00;;;;;;5051989;28;20454;-66
2023/06/06 03:11:37;;;;;;;3.53;2.60;;;14.10;98.00;;;;;;5051498;28;20540;-66
2023/06/06 03:14:05;;;;;;;6.63;3.23;;;14.20;98.00;;;;;;5051857;28;20453;-66
2023/06/06 03:16:34;;;;;;;4.50;3.03;;;14.20;98.00;;;;;;5050906;28;20464;-66
2023/06/06 03:19:12;;;;;;;6.13;2.60;;;14.20;98.00;;;;;;5051601;28;20999;-66
2023/06/06 03:21:39;;;;;;;5.43;3.03;;;14.10;98.00;;;;;;5051534;28;20662;-66
2023/06/06 03:24:06;;;;;;;4.10;2.80;;;14.10;98.00;;;;;;5051599;28;20485;-66
2023/06/06 03:26:34;;;;;;;5.67;2.90;;;14.00;98.00;;;;;;5051397;28;20465;-66
2023/06/06 03:29:01;;;;;;;5.10;3.00;;;14.00;98.00;;;;;;5034266;28;20453;-66
2023/06/06 03:31:30;;;;;;;3.37;2.63;;;13.90;98.00;;;;;;5051337;28;20454;-66
2023/06/06 03:33:58;;;;;;;6.70;2.93;;;13.80;98.00;;;;;;5051611;28;20470;-66
2023/06/06 03:36:32;;;;;;;4.80;2.97;;;13.90;98.00;;;;;;5051492;28;20781;-66
2023/06/06 03:38:59;;;;;;;4.80;2.77;;;14.00;98.00;;;;;;5051444;28;21028;-66
2023/06/06 03:41:35;;;;;;;4.40;3.00;;;14.10;98.00;;;;;;5051430;28;20456;-66
2023/06/06 03:44:02;;;;;;;5.60;3.07;;;14.00;98.00;;;;;;5051331;28;20462;-66
2023/06/06 03:46:29;;;;;;;4.97;2.60;;;14.00;98.00;;;;;;5051129;28;20953;-66
2023/06/06 03:48:57;;;;;;;5.90;2.80;;;14.00;98.00;;;;;;5051425;28;20453;-66
2023/06/06 03:51:25;;;;;;;5.60;2.90;;;14.20;98.00;;;;;;5051057;28;20449;-66
2023/06/06 03:53:53;;;;;;;4.77;2.70;;;14.20;98.00;;;;;;5051408;28;20453;-66
2023/06/06 03:56:21;;;;;;;7.27;3.27;;;14.10;98.00;;;;;;5051012;28;20470;-66
2023/06/06 03:58:49;;;;;;;5.93;3.10;;;13.90;98.00;;;;;;5033605;28;20520;-66
2023/06/06 04:01:16;;;;;;;4.37;2.67;;;13.90;98.00;;;;;;5050292;28;20531;-66
2023/06/06 04:03:43;;;;;;;3.87;2.67;;;13.80;98.00;;;;;;5049950;28;20749;-66
2023/06/06 04:06:11;;;;;;;4.37;3.07;;;13.70;98.00;;;;;;5051130;28;20450;-66
2023/06/06 04:08:40;;;;;;;6.30;2.87;;;13.90;98.00;;;;;;5051161;28;20848;-66
2023/06/06 04:11:07;;;;;;;7.17;3.43;;;14.10;98.00;;;;;;5050723;28;20452;-66
2023/06/06 04:13:34;;;;;;;6.20;2.80;;;14.20;98.00;;;;;;5050947;28;20457;-66
2023/06/06 04:16:01;;;;;;;3.87;2.70;;;14.20;98.00;;;;;;5033170;28;20457;-66
2023/06/06 04:18:28;;;;;;;4.07;2.90;;;14.30;98.00;;;;;;5050913;28;20465;-66
2023/06/06 04:20:56;;;;;;;5.20;3.13;;;14.10;98.00;;;;;;5050895;28;20482;-66
2023/06/06 04:23:23;;;;;;;5.37;3.07;;;14.00;98.00;;;;;;5051133;28;20553;-66
2023/06/06 04:25:52;;;;;;;5.10;3.20;;;13.90;98.00;;;;;;5051291;28;20461;-66
2023/06/06 04:28:19;;;;;;;6.70;2.93;;;13.80;98.00;;;;;;5050859;28;20461;-66
2023/06/06 04:30:51;;;;;;;4.23;2.30;;;13.80;98.00;;;;;;5033499;28;20454;-66
2023/06/06 04:33:18;;;;;;;5.13;3.10;;;13.90;98.00;;;;;;5050944;28;20493;-66
2023/06/06 04:35:46;;;;;;;4.87;3.47;;;14.10;98.00;;;;;;5032944;28;20460;-66
2023/06/06 04:38:18;;;;;;;6.13;3.20;;;14.30;98.00;;;;;;5051100;28;20846;-66
2023/06/06 04:40:45;;;;;;;6.20;3.57;;;14.40;98.00;;;;;;5050916;28;20535;-66
2023/06/06 04:43:17;;;;;;;4.70;3.07;;;14.70;98.00;;;;;;5050869;28;20458;-66
2023/06/06 04:45:45;;;;;;;5.40;3.20;;;14.70;98.00;;;;;;5050872;28;20879;-66
2023/06/06 04:48:13;;;;;;;5.00;2.97;;;14.90;98.00;;;;;;5050889;28;20454;-66
2023/06/06 04:50:42;;;;;;;6.23;3.60;;;14.90;98.00;;;;;;5050778;28;20457;-66
2023/06/06 04:53:09;;;;;;;5.20;3.40;;;14.90;98.00;;;;;;5050922;28;20511;-66
2023/06/06 04:55:35;;;;;;;7.00;3.90;;;14.90;98.00;;;;;;5050737;28;20454;-66
2023/06/06 04:58:02;;;;;;;5.83;3.30;;;14.90;98.00;;;;;;5050448;28;20457;-66
2023/06/06 05:00:34;;;;;;;5.03;3.03;;;15.00;98.00;;;;;;5050334;28;20914;-67
2023/06/06 05:03:01;;;;;;;5.67;3.30;;;15.10;98.00;;;;;;5032750;28;20487;-66
2023/06/06 05:05:28;;;;;;;5.60;3.20;;;15.20;98.00;;;;;;5050608;28;20799;-66
2023/06/06 05:07:55;;;;;;;7.10;3.67;;;15.20;98.00;;;;;;5050439;28;20456;-66
2023/06/06 05:10:22;;;;;;;6.43;3.40;;;15.30;98.00;;;;;;5050339;28;20458;-66
2023/06/06 05:12:49;;;;;;;5.60;3.63;;;15.30;98.00;;;;;;5050476;28;20948;-66
2023/06/06 05:15:17;;;;;;;5.33;3.20;;;15.20;98.00;;;;;;5052010;28;20490;-66
2023/06/06 05:17:56;;;;;;;12.23;3.37;;;15.20;98.00;;;;;;5036725;28;20635;-66
2023/06/06 05:20:24;;;;;;;4.53;3.30;;;15.30;98.00;;;;;;5053628;28;20493;-66
2023/06/06 05:22:51;;;;;;;8.10;3.57;;;15.50;98.00;;;;;;5053940;28;20458;-66
2023/06/06 05:25:19;;;;;;;6.87;3.47;;;15.50;98.00;;;;;;5054117;28;20836;-66
2023/06/06 05:27:46;;;;;;;5.80;3.17;;;15.50;98.00;;;;;;5053892;28;20466;-66
2023/06/06 05:30:14;;;;;;;6.33;3.53;;;15.50;98.00;;;;;;5053823;28;20462;-66
2023/06/06 05:32:41;;;;;;;5.70;3.20;;;15.60;98.00;;;;;;5053796;28;20556;-66
2023/06/06 05:35:10;;;;;;;6.40;3.87;;;15.70;98.00;;;;;;5036117;28;20496;-66
2023/06/06 05:37:37;;;;;;;5.20;3.40;;;15.80;98.00;;;;;;5036189;28;20468;-66
2023/06/06 05:40:05;;;;;;;7.53;3.80;;;15.90;98.00;;;;;;5053698;28;20508;-66
2023/06/06 05:42:32;;;;;;;8.37;3.97;;;16.00;98.00;;;;;;5053560;28;20500;-66
2023/06/06 05:45:00;;;;;;;6.73;3.53;;;16.00;98.00;;;;;;5053726;28;20960;-63
2023/06/06 05:47:27;;;;;;;7.60;3.63;;;16.00;98.00;;;;;;5051197;28;20464;-63
2023/06/06 05:49:54;;;;;;;7.30;3.80;;;16.10;98.00;;;;;;5053442;28;20870;-63
2023/06/06 05:52:23;;;;;;;6.30;4.00;;;16.20;98.00;;;;;;5053312;28;20458;-63
2023/06/06 05:54:50;;;;;;;7.07;4.00;;;16.20;98.00;;;;;;5053466;28;20919;-62
2023/06/06 05:57:20;;;;;;;6.73;3.50;;;16.30;98.00;;;;;;5053139;28;20454;-63
2023/06/06 05:59:47;;;;;;;6.73;3.60;;;16.40;98.00;;;;;;5052989;28;20580;-63
2023/06/06 06:02:15;;;;;;;7.97;3.97;;;16.60;98.00;;;;;;5053001;28;20450;-63
2023/06/06 06:04:42;;;;;;;8.10;3.93;;;16.60;98.00;;;;;;5035573;28;20458;-63
2023/06/06 06:07:10;;;;;;;9.17;4.23;;;16.70;98.00;;;;;;5053247;28;20466;-63
2023/06/06 06:09:38;;;;;;;7.70;3.63;;;16.70;98.00;;;;;;5052944;28;20464;-63
2023/06/06 06:12:06;;;;;;;6.87;4.00;;;16.70;98.00;;;;;;5052878;28;20458;-63
2023/06/06 06:14:33;;;;;;;6.50;3.90;;;16.90;98.00;;;;;;5035501;28;20481;-63
2023/06/06 06:17:00;;;;;;;6.53;4.07;;;16.90;98.00;;;;;;5052791;28;20468;-63
2023/06/06 06:19:27;;;;;;;6.07;4.00;;;17.00;98.00;;;;;;5052785;28;20956;-63
2023/06/06 06:21:54;;;;;;;8.83;4.17;;;17.00;98.00;;;;;;5052856;28;20461;-63
2023/06/06 06:24:30;;;;;;;8.10;3.83;;;17.20;98.00;;;;;;5052746;28;20453;-64
2023/06/06 06:26:58;;;;;;;6.13;3.80;;;17.30;98.00;;;;;;5052307;28;20961;-63
2023/06/06 06:29:25;;;;;;;7.10;3.77;;;17.40;98.00;;;;;;5034949;28;20461;-63
2023/06/06 06:31:52;;;;;;;10.53;4.70;;;17.40;98.00;;;;;;5052497;28;20972;-64
2023/06/06 06:34:19;;;;;;;6.80;4.27;;;17.40;98.00;;;;;;5052772;28;20869;-63
2023/06/06 06:36:46;;;;;;;8.53;4.07;;;17.50;98.00;;;;;;5052643;28;20461;-63
2023/06/06 06:39:18;;;;;;;6.03;3.60;;;17.60;98.00;;;;;;5052948;28;21002;-63
2023/06/06 06:41:45;;;;;;;7.33;3.60;;;17.70;98.00;;;;;;5052332;28;20458;-63
2023/06/06 06:44:14;;;;;;;7.77;4.30;;;17.80;98.00;;;;;;5051981;28;20460;-63
2023/06/06 06:46:41;;;;;;;7.33;4.13;;;18.00;98.00;;;;;;5052164;28;20674;-63
2023/06/06 06:49:14;;;;;;;5.63;3.20;;;18.20;98.00;;;;;;5052354;28;20457;-63
2023/06/06 06:51:41;;;;;;;6.67;3.60;;;18.30;98.00;;;;;;5052081;28;20492;-64
2023/06/06 06:54:11;;;;;;;5.40;3.53;;;18.30;98.00;;;;;;5052116;28;20469;-63
2023/06/06 06:56:38;;;;;;;7.10;3.70;;;18.40;98.00;;;;;;5060580;28;20522;-64
2023/06/06 06:59:05;;;;;;;5.97;3.17;;;18.60;98.00;;;;;;5072448;28;20460;-63
2023/06/06 07:01:33;;;;;;;7.17;3.37;;;18.70;98.00;;;;;;5071934;28;20576;-63
2023/06/06 07:04:03;;;;;;;6.70;3.83;;;18.80;98.00;;;;;;5060810;28;20469;-64
2023/06/06 07:06:33;;;;;;;7.33;4.30;;;18.90;98.00;;;;;;5051021;28;20465;-63
2023/06/06 07:09:00;;;;;;;5.83;3.27;;;19.00;98.00;;;;;;5051324;28;20474;-63
2023/06/06 07:11:27;;;;;;;9.03;3.77;;;19.20;98.00;;;;;;5051688;28;20536;-63
2023/06/06 07:13:56;;;;;;;7.63;3.70;;;19.30;98.00;;;;;;5051653;28;20515;-63
2023/06/06 07:16:25;;;;;;;5.40;3.23;;;19.40;98.00;;;;;;5051636;28;20446;-63
2023/06/06 07:18:54;;;;;;;5.60;3.77;;;19.30;98.00;;;;;;5051605;28;20497;-63
2023/06/06 07:21:21;;;;;;;6.40;3.73;;;19.40;98.00;;;;;;5051673;28;20525;-63
2023/06/06 07:23:48;;;;;;;5.97;3.97;;;19.50;98.00;;;;;;5051759;28;20552;-65
2023/06/06 07:26:17;;;;;;;6.60;3.70;;;19.50;98.00;;;;;;5051936;28;20979;-65
2023/06/06 07:28:45;;;;;;;8.67;4.47;;;19.60;98.00;;;;;;5051911;28;20480;-64
2023/06/06 07:31:12;;;;;;;7.00;3.80;;;19.70;98.00;;;;;;5051198;28;20460;-64
2023/06/06 07:33:42;;;;;;;7.60;3.60;;;19.70;98.00;;;;;;5051558;28;20489;-64
2023/06/06 07:36:11;;;;;;;6.40;3.87;;;19.80;98.00;;;;;;5051274;28;20991;-64
2023/06/06 07:38:38;;;;;;;6.03;3.50;;;19.90;98.00;;;;;;5050947;28;20465;-64
2023/06/06 07:41:05;;;;;;;6.00;3.70;;;19.90;98.00;;;;;;5051697;28;20535;-63
2023/06/06 07:43:32;;;;;;;7.73;3.57;;;20.00;98.00;;;;;;5051508;28;20461;-63
2023/06/06 07:45:59;;;;;;;8.03;3.67;;;20.10;98.00;;;;;;5051413;28;20449;-63
2023/06/06 07:48:27;;;;;;;6.57;3.80;;;20.10;98.00;;;;;;5051310;28;20493;-63
2023/06/06 07:50:56;;;;;;;6.27;3.60;;;20.20;98.00;;;;;;5051424;28;20457;-64
2023/06/06 07:53:25;;;;;;;4.70;3.17;;;20.30;98.00;;;;;;5051484;28;20868;-63
2023/06/06 07:55:52;;;;;;;5.10;3.37;;;20.50;98.00;;;;;;5051248;28;20457;-64
2023/06/06 07:58:25;;;;;;;5.80;3.77;;;20.70;98.00;;;;;;5051400;28;20465;-64
2023/06/06 08:00:52;;;;;;;6.53;3.70;;;20.80;98.00;;;;;;5051359;28;20493;-63
2023/06/06 08:03:19;;;;;;;7.30;4.20;;;20.70;98.00;;;;;;5050440;28;20819;-64
2023/06/06 08:05:47;;;;;;;5.73;3.73;;;20.90;98.00;;;;;;5033034;28;20462;-64
2023/06/06 08:08:14;;;;;;;6.10;3.60;;;21.00;98.00;;;;;;5051023;28;20470;-63
2023/06/06 08:10:42;;;;;;;6.40;4.07;;;21.10;98.00;;;;;;5050809;28;20511;-63
2023/06/06 08:13:09;;;;;;;6.33;3.40;;;21.10;98.00;;;;;;5050432;28;20480;-64
2023/06/06 08:15:36;;;;;;;5.40;3.47;;;21.20;98.00;;;;;;5049863;28;20449;-63
2023/06/06 08:18:04;;;;;;;5.80;3.37;;;21.40;98.00;;;;;;5049659;28;20461;-64
2023/06/06 08:20:31;;;;;;;8.00;3.97;;;21.40;98.00;;;;;;5051286;28;20543;-63
2023/06/06 08:22:58;;;;;;;6.07;3.40;;;21.50;98.00;;;;;;5050883;28;20465;-63
2023/06/06 08:25:25;;;;;;;5.50;3.40;;;21.70;98.00;;;;;;5050387;28;20466;-64
2023/06/06 08:27:54;;;;;;;4.77;3.30;;;21.80;98.00;;;;;;5050463;28;20500;-63
2023/06/06 08:30:21;;;;;;;5.60;3.47;;;21.90;97.60;;;;;;5050083;28;20531;-64
2023/06/06 08:32:49;;;;;;;4.43;3.10;;;21.90;98.00;;;;;;5050348;28;20477;-61
2023/06/06 08:35:16;;;;;;;4.90;3.10;;;22.00;98.00;;;;;;5050593;28;20527;-60
2023/06/06 08:37:43;;;;;;;5.80;3.27;;;22.20;96.90;;;;;;5050429;28;20458;-60
2023/06/06 08:40:11;;;;;;;4.67;2.90;;;22.30;98.00;;;;;;5050487;28;20457;-60
2023/06/06 08:42:43;;;;;;;4.57;3.17;;;22.50;98.00;;;;;;5050384;28;20580;-61
2023/06/06 08:45:12;;;;;;;7.00;3.80;;;22.60;94.10;;;;;;5050467;28;20464;-60
2023/06/06 08:47:40;;;;;;;4.93;3.07;;;22.60;96.70;;;;;;5050545;28;20507;-60
2023/06/06 08:50:08;;;;;;;4.53;3.20;;;22.80;95.80;;;;;;5036173;28;20465;-63
2023/06/06 08:52:36;;;;;;;4.93;3.20;;;22.70;93.60;;;;;;5054187;28;20464;-61
2023/06/06 08:55:05;;;;;;;5.60;3.37;;;22.90;94.70;;;;;;5054945;28;20449;-62
2023/06/06 08:57:33;;;;;;;5.20;3.23;;;23.00;93.50;;;;;;5036640;28;20961;-62
2023/06/06 09:00:10;;;;;;;5.17;3.43;;;23.10;94.20;;;;;;5054504;28;20453;-63
2023/06/06 09:02:41;;;;;;;5.37;3.40;;;23.20;92.80;;;;;;5053965;28;20475;-63
2023/06/06 09:05:10;;;;;;;5.73;3.60;;;23.20;92.70;;;;;;5054313;28;20457;-62
2023/06/06 09:07:38;;;;;;;5.53;3.40;;;23.10;91.30;;;;;;5053816;28;20519;-62
2023/06/06 09:10:07;;;;;;;4.90;3.30;;;23.10;94.30;;;;;;5053781;28;20974;-63
2023/06/06 09:12:40;;;;;;;10.47;3.80;;;23.40;93.40;;;;;;5053945;28;20453;-61
2023/06/06 09:15:09;;;;;;;4.60;3.40;;;23.50;93.10;;;;;;5054268;28;20465;-61
2023/06/06 09:17:37;;;;;;;4.83;3.20;;;23.50;91.80;;;;;;5053881;28;20476;-62
2023/06/06 09:20:09;;;;;;;7.13;3.70;;;23.60;92.10;;;;;;5053760;28;20493;-62
2023/06/06 09:22:42;;;;;;;6.03;4.33;;;23.70;90.30;;;;;;5053590;28;20458;-62
2023/06/06 09:25:17;;;;;;;4.37;3.37;;;23.80;92.20;;;;;;5036144;28;20449;-61
2023/06/06 09:27:46;;;;;;;6.33;3.80;;;23.90;93.20;;;;;;5053350;28;21020;-61
2023/06/06 09:30:23;;;;;;;6.27;3.80;;;24.00;91.40;;;;;;5053589;28;20467;-62
2023/06/06 09:32:56;;;;;;;6.50;3.90;;;24.10;92.60;;;;;;5053322;28;20469;-62
2023/06/06 09:35:25;;;;;;;5.27;3.70;;;24.20;92.40;;;;;;5053469;28;20458;-61
2023/06/06 09:37:54;;;;;;;5.83;3.93;;;24.40;92.10;;;;;;5053396;28;20456;-62
2023/06/06 09:40:22;;;;;;;6.20;3.80;;;24.40;90.50;;;;;;5053367;28;20714;-62
2023/06/06 09:42:50;;;;;;;5.80;3.50;;;24.30;89.80;;;;;;5053093;28;20446;-62
2023/06/06 09:45:19;;;;;;;7.63;3.90;;;24.40;89.10;;;;;;5053179;28;20943;-62
2023/06/06 09:47:48;;;;;;;6.03;3.70;;;24.60;91.80;;;;;;5053024;28;20454;-62
2023/06/06 09:50:17;;;;;;;7.70;4.50;;;24.70;89.40;;;;;;5052669;28;20457;-61
2023/06/06 09:52:45;;;;;;;5.70;3.70;;;24.80;88.70;;;;;;5035230;28;20806;-62
2023/06/06 09:55:14;;;;;;;6.57;4.07;;;24.70;88.60;;;;;;5053325;28;20524;-62
2023/06/06 09:57:42;;;;;;;7.33;4.13;;;24.90;88.40;;;;;;5052975;28;20453;-62
2023/06/06 10:00:14;;;;;;;6.23;4.07;;;24.90;86.30;;;;;;5052153;28;20461;-62
2023/06/06 10:02:43;;;;;;;6.27;3.70;;;25.00;87.30;;;;;;5052939;28;20520;-62
2023/06/06 10:05:13;;;;;;;8.13;4.00;;;25.10;87.50;;;;;;5053106;28;20507;-62
2023/06/06 10:07:44;;;;;;;6.63;4.50;;;25.30;86.80;;;;;;5052931;28;20549;-61
2023/06/06 10:10:16;;;;;;;7.23;4.23;;;25.40;86.50;;;;;;5053302;28;20955;-62
2023/06/06 10:12:44;;;;;;;5.97;4.30;;;25.60;87.10;;;;;;5052896;28;20442;-61
2023/06/06 10:15:12;;;;;;;6.27;4.10;;;25.90;87.40;;;;;;5052909;28;20457;-62
2023/06/06 10:17:43;;;;;;;7.23;4.03;;;25.80;85.20;;;;;;5052505;28;20449;-62
2023/06/06 10:20:11;;;;;;;5.80;3.50;;;25.90;85.10;;;;;;5053053;28;20462;-62
2023/06/06 10:22:40;;;;;;;5.87;3.90;;;26.00;83.80;;;;;;5034891;28;20486;-61
2023/06/06 10:25:11;;;;;;;6.33;4.17;;;26.20;84.90;;;;;;5052539;28;20539;-62
2023/06/06 10:27:51;;;;;;;5.60;3.93;;;26.40;83.10;;;;;;5034911;28;20556;-62
2023/06/06 10:30:29;;;;;;;5.43;4.10;;;26.50;83.10;;;;;;5052549;28;20457;-61
2023/06/06 10:33:18;;;;;;;6.83;4.20;;;26.70;83.20;;;;;;5052291;28;20473;-62
2023/06/06 10:35:47;;;;;;;8.17;4.60;;;26.80;83.20;;;;;;5052016;28;20540;-61
2023/06/06 10:38:14;;;;;;;6.43;4.00;;;26.80;81.70;;;;;;5052268;28;20972;-62
2023/06/06 10:40:43;;;;;;;6.37;4.50;;;26.50;81.90;;;;;;5052181;28;20457;-62
2023/06/06 10:43:12;;;;;;;7.43;4.20;;;26.20;82.50;;;;;;5052094;28;20484;-61
2023/06/06 10:45:43;;;;;;;6.90;4.30;;;26.30;81.60;;;;;;5052149;28;20449;-62
2023/06/06 10:48:10;;;;;;;7.27;4.50;;;26.40;82.00;;;;;;5052138;28;20540;-62
2023/06/06 10:50:38;;;;;;;8.37;3.83;;;26.20;81.40;;;;;;5052069;28;20461;-61
2023/06/06 10:53:08;;;;;;;6.97;4.17;;;26.40;81.20;;;;;;5052278;28;20494;-62
2023/06/06 10:55:45;;;;;;;6.40;3.90;;;26.60;81.00;;;;;;5052215;28;20843;-61
2023/06/06 10:58:20;;;;;;;7.03;4.17;;;26.90;80.70;;;;;;5052003;28;20462;-61
2023/06/06 11:00:49;;;;;;;6.57;4.20;;;27.30;79.10;;;;;;5051813;28;20511;-61
2023/06/06 11:03:20;;;;;;;7.30;4.30;;;27.60;79.10;;;;;;5052029;28;21009;-62
2023/06/06 11:06:11;;;;;;;6.33;4.27;;;27.90;76.90;;;;;;5051893;28;20457;-62
2023/06/06 11:08:40;;;;;;;5.80;3.80;;;28.00;77.30;;;;;;5051583;28;20465;-62
2023/06/06 11:11:22;;;;;;;8.70;4.27;;;28.20;77.30;;;;;;5052253;28;20469;-62
2023/06/06 11:13:56;;;;;;;6.47;4.23;;;28.00;75.20;;;;;;5052087;28;20520;-62
2023/06/06 11:17:01;;;;;;;6.27;3.80;;;27.80;77.30;;;;;;5051725;28;20776;-62
2023/06/06 11:19:33;;;;;;;7.00;4.30;;;27.60;74.30;;;;;;5061803;28;20453;-62
2023/06/06 11:22:02;;;;;;;5.90;4.10;;;27.60;74.60;;;;;;5068592;28;20481;-62
2023/06/06 11:24:41;;;;;;;5.70;3.97;;;27.80;75.40;;;;;;5068590;28;20449;-62
2023/06/06 11:27:10;;;;;;;7.40;4.10;;;28.10;75.10;;;;;;5068908;28;20452;-62
2023/06/06 11:29:42;;;;;;;5.47;3.80;;;28.50;74.40;;;;;;5069759;28;20452;-61
2023/06/06 11:32:13;;;;;;;7.20;3.90;;;28.20;75.10;;;;;;5070082;28;20464;-62
2023/06/06 11:34:40;;;;;;;7.43;4.57;;;27.70;73.40;;;;;;5071035;28;20465;-62
2023/06/06 11:37:09;;;;;;;7.37;4.30;;;27.10;73.80;;;;;;5071150;28;20473;-62
2023/06/06 11:39:36;;;;;;;7.90;4.40;;;26.60;76.10;;;;;;5071054;28;20553;-61
2023/06/06 11:42:03;;;;;;;8.57;4.43;;;26.30;77.60;;;;;;5070943;28;20567;-62
2023/06/06 11:44:35;;;;;;;6.47;4.00;;;26.10;78.70;;;;;;5086206;28;20464;-62
2023/06/06 11:47:08;;;;;;;6.63;4.40;;;26.00;78.80;;;;;;5070922;28;20959;-62
2023/06/06 11:49:47;;;;;;;5.93;4.00;;;25.80;78.30;;;;;;5071313;28;20892;-62
2023/06/06 11:52:15;;;;;;;6.13;4.37;;;26.00;79.10;;;;;;5071244;28;20461;-62
2023/06/06 11:54:52;;;;;;;6.40;4.27;;;26.60;78.20;;;;;;5071186;28;20479;-62
2023/06/06 11:57:21;;;;;;;8.73;4.40;;;27.30;77.50;;;;;;5071015;28;20449;-61
2023/06/06 11:59:54;;;;;;;6.93;4.10;;;27.80;77.10;;;;;;5071449;28;20457;-62
2023/06/06 12:02:23;;;;;;;6.80;4.63;;;28.30;75.40;;;;;;5071142;28;20572;-62
2023/06/06 12:04:50;;;;;;;5.73;4.17;;;28.50;72.90;;;;;;5071380;28;20606;-61
2023/06/06 12:07:17;;;;;;;6.77;4.37;;;28.80;73.00;;;;;;5086508;28;20449;-63
2023/06/06 12:09:44;;;;;;;8.90;4.57;;;29.00;73.10;;;;;;5070925;28;20463;-63
2023/06/06 12:12:12;;;;;;;7.67;4.53;;;29.30;72.90;;;;;;5070895;28;20464;-63
2023/06/06 12:14:40;;;;;;;5.70;4.07;;;29.40;73.20;;;;;;5070883;28;20942;-62
2023/06/06 12:17:08;;;;;;;5.30;4.20;;;29.20;73.30;;;;;;5052826;28;20453;-63
2023/06/06 12:19:37;;;;;;;7.87;4.40;;;28.60;72.10;;;;;;5086296;28;20457;-62
2023/06/06 12:22:06;;;;;;;8.50;4.90;;;27.90;73.40;;;;;;5070820;28;21037;-60
2023/06/06 12:24:34;;;;;;;7.37;4.50;;;27.40;75.30;;;;;;5073212;28;20460;-61
2023/06/06 12:27:02;;;;;;;6.77;4.23;;;27.30;75.80;;;;;;5074973;28;20460;-62
2023/06/06 12:29:33;;;;;;;6.47;4.43;;;27.10;75.90;;;;;;5074904;28;20456;-63
2023/06/06 12:32:17;;;;;;;6.30;4.03;;;27.50;78.30;;;;;;5075044;28;20840;-61
2023/06/06 12:34:49;;;;;;;6.13;3.90;;;28.20;74.30;;;;;;5074710;28;20460;-60
2023/06/06 12:37:17;;;;;;;7.47;4.30;;;28.70;71.30;;;;;;5074932;28;20493;-61
2023/06/06 12:39:46;;;;;;;6.70;4.47;;;29.00;69.70;;;;;;5074758;28;20484;-60
2023/06/06 12:42:15;;;;;;;6.53;4.00;;;29.40;69.80;;;;;;5074776;28;20484;-60
2023/06/06 12:44:46;;;;;;;6.60;4.50;;;29.80;69.50;;;;;;5074740;28;20459;-60
2023/06/06 12:47:14;;;;;;;5.27;3.80;;;30.10;68.80;;;;;;5074785;28;20464;-61
2023/06/06 12:49:42;;;;;;;5.60;3.90;;;30.40;68.70;;;;;;5074635;28;20463;-60
2023/06/06 12:52:11;;;;;;;6.73;4.07;;;30.70;68.00;;;;;;5074773;28;20483;-61
2023/06/06 12:54:41;;;;;;;5.37;3.87;;;31.00;67.60;;;;;;5074939;28;20455;-60